sensor_id;sensor_type;location;lat;lon;timestamp;P1;durP1;ratioP1;P2;durP2;ratioP2
40755;SDS011;26461;45.630;9.418;2022-12-24T00:00:03;38.05;;;23.92;;
40755;SDS011;26461;45.630;9.418;2022-12-24T00:03:16;57.63;;;28.85;;
40755;SDS011;26461;45.630;9.418;2022-12-24T00:06:27;37.22;;;25.05;;
40755;SDS011;26461;45.630;9.418;2022-12-24T00:09:37;39.78;;;26.98;;
40755;SDS011;26461;45.630;9.418;2022-12-24T00:12:47;39.95;;;29.08;;
40755;SDS011;26461;45.630;9.418;2022-12-24T00:15:57;47.08;;;29.10;;
40755;SDS011;26461;45.630;9.418;2022-12-24T00:19:08;48.63;;;29.88;;
40755;SDS011;26461;45.630;9.418;2022-12-24T00:22:18;49.05;;;28.77;;
40755;SDS011;26461;45.630;9.418;2022-12-24T00:25:28;59.67;;;30.42;;
40755;SDS011;26461;45.630;9.418;2022-12-24T00:28:38;35.97;;;26.98;;
40755;SDS011;26461;45.630;9.418;2022-12-24T00:31:48;47.00;;;27.95;;
40755;SDS011;26461;45.630;9.418;2022-12-24T00:34:58;40.08;;;26.08;;
40755;SDS011;26461;45.630;9.418;2022-12-24T00:38:08;43.67;;;29.98;;
40755;SDS011;26461;45.630;9.418;2022-12-24T00:41:18;41.42;;;32.53;;
40755;SDS011;26461;45.630;9.418;2022-12-24T00:44:33;50.40;;;27.58;;
40755;SDS011;26461;45.630;9.418;2022-12-24T00:47:43;47.45;;;33.20;;
40755;SDS011;26461;45.630;9.418;2022-12-24T00:50:53;53.92;;;30.13;;
40755;SDS011;26461;45.630;9.418;2022-12-24T00:54:04;58.35;;;33.45;;
40755;SDS011;26461;45.630;9.418;2022-12-24T00:57:16;32.78;;;25.52;;
40755;SDS011;26461;45.630;9.418;2022-12-24T01:00:26;48.33;;;29.67;;
40755;SDS011;26461;45.630;9.418;2022-12-24T01:07:48;53.03;;;26.75;;
40755;SDS011;26461;45.630;9.418;2022-12-24T01:11:12;42.28;;;25.02;;
40755;SDS011;26461;45.630;9.418;2022-12-24T01:14:20;45.28;;;30.00;;
40755;SDS011;26461;45.630;9.418;2022-12-24T01:28:37;35.53;;;27.08;;
40755;SDS011;26461;45.630;9.418;2022-12-24T01:31:47;50.00;;;27.55;;
40755;SDS011;26461;45.630;9.418;2022-12-24T01:43:30;43.08;;;27.30;;
40755;SDS011;26461;45.630;9.418;2022-12-24T01:46:39;36.35;;;24.58;;
40755;SDS011;26461;45.630;9.418;2022-12-24T01:49:46;45.10;;;22.75;;
40755;SDS011;26461;45.630;9.418;2022-12-24T01:56:28;49.60;;;27.42;;
40755;SDS011;26461;45.630;9.418;2022-12-24T01:59:41;40.90;;;28.80;;
40755;SDS011;26461;45.630;9.418;2022-12-24T02:02:50;39.30;;;27.35;;
40755;SDS011;26461;45.630;9.418;2022-12-24T02:05:57;32.65;;;27.08;;
40755;SDS011;26461;45.630;9.418;2022-12-24T02:09:04;43.38;;;26.48;;
40755;SDS011;26461;45.630;9.418;2022-12-24T02:12:15;36.78;;;19.50;;
40755;SDS011;26461;45.630;9.418;2022-12-24T02:15:26;53.53;;;34.13;;
40755;SDS011;26461;45.630;9.418;2022-12-24T02:18:45;56.22;;;29.90;;
40755;SDS011;26461;45.630;9.418;2022-12-24T02:33:10;41.75;;;27.17;;
40755;SDS011;26461;45.630;9.418;2022-12-24T02:36:45;33.80;;;23.30;;
40755;SDS011;26461;45.630;9.418;2022-12-24T02:40:14;43.97;;;23.60;;
40755;SDS011;26461;45.630;9.418;2022-12-24T02:43:28;48.45;;;27.95;;
40755;SDS011;26461;45.630;9.418;2022-12-24T02:46:43;49.83;;;27.98;;
40755;SDS011;26461;45.630;9.418;2022-12-24T02:49:55;35.65;;;26.88;;
40755;SDS011;26461;45.630;9.418;2022-12-24T02:53:00;32.65;;;28.05;;
40755;SDS011;26461;45.630;9.418;2022-12-24T02:56:30;36.95;;;22.75;;
40755;SDS011;26461;45.630;9.418;2022-12-24T03:00:06;47.28;;;28.83;;
40755;SDS011;26461;45.630;9.418;2022-12-24T03:03:32;69.32;;;32.35;;
40755;SDS011;26461;45.630;9.418;2022-12-24T03:06:51;39.45;;;29.02;;
40755;SDS011;26461;45.630;9.418;2022-12-24T03:13:39;46.28;;;29.27;;
40755;SDS011;26461;45.630;9.418;2022-12-24T03:16:51;53.28;;;29.75;;
40755;SDS011;26461;45.630;9.418;2022-12-24T03:20:01;37.38;;;25.45;;
40755;SDS011;26461;45.630;9.418;2022-12-24T03:23:12;48.95;;;24.25;;
40755;SDS011;26461;45.630;9.418;2022-12-24T03:26:23;37.38;;;26.17;;
40755;SDS011;26461;45.630;9.418;2022-12-24T03:29:38;32.80;;;23.35;;
40755;SDS011;26461;45.630;9.418;2022-12-24T03:32:48;37.78;;;24.52;;
40755;SDS011;26461;45.630;9.418;2022-12-24T03:35:59;42.05;;;24.77;;
40755;SDS011;26461;45.630;9.418;2022-12-24T03:39:09;40.13;;;23.80;;
40755;SDS011;26461;45.630;9.418;2022-12-24T03:42:19;37.30;;;23.67;;
40755;SDS011;26461;45.630;9.418;2022-12-24T03:45:29;47.25;;;28.83;;
40755;SDS011;26461;45.630;9.418;2022-12-24T03:48:39;44.85;;;23.77;;
40755;SDS011;26461;45.630;9.418;2022-12-24T03:51:49;38.22;;;26.48;;
40755;SDS011;26461;45.630;9.418;2022-12-24T03:54:58;24.70;;;21.33;;
40755;SDS011;26461;45.630;9.418;2022-12-24T03:58:08;33.80;;;23.95;;
40755;SDS011;26461;45.630;9.418;2022-12-24T04:01:19;52.97;;;26.83;;
40755;SDS011;26461;45.630;9.418;2022-12-24T04:04:29;38.00;;;20.67;;
40755;SDS011;26461;45.630;9.418;2022-12-24T04:07:41;54.03;;;32.78;;
40755;SDS011;26461;45.630;9.418;2022-12-24T04:10:51;53.10;;;25.63;;
40755;SDS011;26461;45.630;9.418;2022-12-24T04:14:00;35.90;;;23.30;;
40755;SDS011;26461;45.630;9.418;2022-12-24T04:17:10;37.00;;;20.48;;
40755;SDS011;26461;45.630;9.418;2022-12-24T04:20:20;36.80;;;23.00;;
40755;SDS011;26461;45.630;9.418;2022-12-24T04:23:31;47.40;;;24.60;;
40755;SDS011;26461;45.630;9.418;2022-12-24T04:26:42;36.13;;;22.92;;
40755;SDS011;26461;45.630;9.418;2022-12-24T04:29:52;47.83;;;22.35;;
40755;SDS011;26461;45.630;9.418;2022-12-24T04:33:02;34.65;;;24.05;;
40755;SDS011;26461;45.630;9.418;2022-12-24T04:36:14;39.50;;;23.25;;
40755;SDS011;26461;45.630;9.418;2022-12-24T04:39:26;51.50;;;27.35;;
40755;SDS011;26461;45.630;9.418;2022-12-24T04:42:35;46.70;;;22.45;;
40755;SDS011;26461;45.630;9.418;2022-12-24T04:45:45;58.60;;;31.48;;
40755;SDS011;26461;45.630;9.418;2022-12-24T04:48:55;57.15;;;24.52;;
40755;SDS011;26461;45.630;9.418;2022-12-24T04:52:06;33.42;;;22.08;;
40755;SDS011;26461;45.630;9.418;2022-12-24T04:55:16;32.63;;;19.77;;
40755;SDS011;26461;45.630;9.418;2022-12-24T04:58:26;51.13;;;25.92;;
40755;SDS011;26461;45.630;9.418;2022-12-24T05:01:37;49.00;;;27.80;;
40755;SDS011;26461;45.630;9.418;2022-12-24T05:04:47;34.28;;;22.27;;
40755;SDS011;26461;45.630;9.418;2022-12-24T05:07:57;28.88;;;19.55;;
40755;SDS011;26461;45.630;9.418;2022-12-24T05:11:07;52.15;;;27.25;;
40755;SDS011;26461;45.630;9.418;2022-12-24T05:14:17;48.85;;;25.75;;
40755;SDS011;26461;45.630;9.418;2022-12-24T05:17:27;44.28;;;22.38;;
40755;SDS011;26461;45.630;9.418;2022-12-24T05:20:31;33.63;;;21.52;;
40755;SDS011;26461;45.630;9.418;2022-12-24T05:23:41;28.08;;;19.75;;
40755;SDS011;26461;45.630;9.418;2022-12-24T05:27:12;36.50;;;21.25;;
40755;SDS011;26461;45.630;9.418;2022-12-24T05:30:23;28.83;;;20.17;;
40755;SDS011;26461;45.630;9.418;2022-12-24T05:33:33;38.55;;;25.23;;
40755;SDS011;26461;45.630;9.418;2022-12-24T05:36:43;38.72;;;23.52;;
40755;SDS011;26461;45.630;9.418;2022-12-24T05:39:54;50.35;;;27.80;;
40755;SDS011;26461;45.630;9.418;2022-12-24T05:43:08;44.65;;;25.83;;
40755;SDS011;26461;45.630;9.418;2022-12-24T05:46:21;41.30;;;25.50;;
40755;SDS011;26461;45.630;9.418;2022-12-24T05:49:35;31.27;;;20.88;;
40755;SDS011;26461;45.630;9.418;2022-12-24T05:52:45;33.80;;;21.10;;
40755;SDS011;26461;45.630;9.418;2022-12-24T05:56:07;49.70;;;25.70;;
40755;SDS011;26461;45.630;9.418;2022-12-24T05:59:19;28.45;;;23.00;;
40755;SDS011;26461;45.630;9.418;2022-12-24T06:02:29;38.05;;;24.05;;
40755;SDS011;26461;45.630;9.418;2022-12-24T06:05:40;55.22;;;23.85;;
40755;SDS011;26461;45.630;9.418;2022-12-24T06:08:50;43.78;;;24.48;;
40755;SDS011;26461;45.630;9.418;2022-12-24T06:12:01;41.78;;;20.67;;
40755;SDS011;26461;45.630;9.418;2022-12-24T06:15:12;56.78;;;28.15;;
40755;SDS011;26461;45.630;9.418;2022-12-24T06:18:23;36.35;;;23.90;;
40755;SDS011;26461;45.630;9.418;2022-12-24T06:21:33;29.98;;;21.95;;
40755;SDS011;26461;45.630;9.418;2022-12-24T06:24:43;36.22;;;23.42;;
40755;SDS011;26461;45.630;9.418;2022-12-24T06:27:55;41.75;;;26.50;;
40755;SDS011;26461;45.630;9.418;2022-12-24T06:31:05;41.60;;;19.38;;
40755;SDS011;26461;45.630;9.418;2022-12-24T06:34:19;28.10;;;20.88;;
40755;SDS011;26461;45.630;9.418;2022-12-24T06:37:29;25.00;;;18.65;;
40755;SDS011;26461;45.630;9.418;2022-12-24T06:40:39;36.05;;;20.48;;
40755;SDS011;26461;45.630;9.418;2022-12-24T06:43:50;36.20;;;20.48;;
40755;SDS011;26461;45.630;9.418;2022-12-24T06:47:01;50.75;;;29.20;;
40755;SDS011;26461;45.630;9.418;2022-12-24T06:50:12;31.13;;;20.77;;
40755;SDS011;26461;45.630;9.418;2022-12-24T06:53:17;24.13;;;19.58;;
40755;SDS011;26461;45.630;9.418;2022-12-24T06:56:27;23.75;;;21.05;;
40755;SDS011;26461;45.630;9.418;2022-12-24T06:59:37;46.53;;;20.25;;
40755;SDS011;26461;45.630;9.418;2022-12-24T07:02:47;38.92;;;21.50;;
40755;SDS011;26461;45.630;9.418;2022-12-24T07:05:57;28.83;;;18.45;;
40755;SDS011;26461;45.630;9.418;2022-12-24T07:09:09;31.02;;;18.58;;
40755;SDS011;26461;45.630;9.418;2022-12-24T07:12:22;37.83;;;17.83;;
40755;SDS011;26461;45.630;9.418;2022-12-24T07:15:32;35.85;;;17.05;;
40755;SDS011;26461;45.630;9.418;2022-12-24T07:18:42;33.67;;;18.35;;
40755;SDS011;26461;45.630;9.418;2022-12-24T07:21:52;17.80;;;16.58;;
40755;SDS011;26461;45.630;9.418;2022-12-24T07:25:01;38.40;;;16.08;;
40755;SDS011;26461;45.630;9.418;2022-12-24T07:28:11;38.70;;;20.52;;
40755;SDS011;26461;45.630;9.418;2022-12-24T07:31:21;22.35;;;16.70;;
40755;SDS011;26461;45.630;9.418;2022-12-24T07:34:31;25.30;;;19.23;;
40755;SDS011;26461;45.630;9.418;2022-12-24T07:37:42;26.50;;;16.52;;
40755;SDS011;26461;45.630;9.418;2022-12-24T07:40:52;33.13;;;18.70;;
40755;SDS011;26461;45.630;9.418;2022-12-24T07:44:02;20.67;;;14.60;;
40755;SDS011;26461;45.630;9.418;2022-12-24T07:47:12;30.83;;;18.63;;
40755;SDS011;26461;45.630;9.418;2022-12-24T07:50:22;33.58;;;16.13;;
40755;SDS011;26461;45.630;9.418;2022-12-24T07:53:32;33.13;;;19.40;;
40755;SDS011;26461;45.630;9.418;2022-12-24T07:56:42;23.88;;;16.50;;
40755;SDS011;26461;45.630;9.418;2022-12-24T07:59:46;18.27;;;13.15;;
40755;SDS011;26461;45.630;9.418;2022-12-24T08:02:57;26.20;;;18.33;;
40755;SDS011;26461;45.630;9.418;2022-12-24T08:06:08;25.15;;;18.23;;
40755;SDS011;26461;45.630;9.418;2022-12-24T08:09:19;35.08;;;21.15;;
40755;SDS011;26461;45.630;9.418;2022-12-24T08:12:28;34.15;;;19.05;;
40755;SDS011;26461;45.630;9.418;2022-12-24T08:15:38;35.90;;;18.63;;
40755;SDS011;26461;45.630;9.418;2022-12-24T08:18:49;24.33;;;18.02;;
40755;SDS011;26461;45.630;9.418;2022-12-24T08:21:58;40.35;;;20.35;;
40755;SDS011;26461;45.630;9.418;2022-12-24T08:25:09;25.63;;;15.30;;
40755;SDS011;26461;45.630;9.418;2022-12-24T08:28:19;36.33;;;19.10;;
40755;SDS011;26461;45.630;9.418;2022-12-24T08:31:29;28.80;;;20.10;;
40755;SDS011;26461;45.630;9.418;2022-12-24T08:34:39;21.15;;;16.63;;
40755;SDS011;26461;45.630;9.418;2022-12-24T08:37:49;31.15;;;22.30;;
40755;SDS011;26461;45.630;9.418;2022-12-24T08:40:59;30.75;;;16.08;;
40755;SDS011;26461;45.630;9.418;2022-12-24T08:44:09;18.05;;;15.50;;
40755;SDS011;26461;45.630;9.418;2022-12-24T08:47:18;35.88;;;19.63;;
40755;SDS011;26461;45.630;9.418;2022-12-24T08:50:28;29.75;;;20.42;;
40755;SDS011;26461;45.630;9.418;2022-12-24T08:53:38;24.52;;;19.50;;
40755;SDS011;26461;45.630;9.418;2022-12-24T08:56:49;32.72;;;20.15;;
40755;SDS011;26461;45.630;9.418;2022-12-24T08:59:58;28.13;;;20.02;;
40755;SDS011;26461;45.630;9.418;2022-12-24T09:03:11;33.58;;;20.45;;
40755;SDS011;26461;45.630;9.418;2022-12-24T09:06:22;31.38;;;17.15;;
40755;SDS011;26461;45.630;9.418;2022-12-24T09:09:33;23.92;;;16.55;;
40755;SDS011;26461;45.630;9.418;2022-12-24T09:12:43;24.90;;;19.40;;
40755;SDS011;26461;45.630;9.418;2022-12-24T09:15:54;32.53;;;17.90;;
40755;SDS011;26461;45.630;9.418;2022-12-24T09:19:04;54.20;;;25.05;;
40755;SDS011;26461;45.630;9.418;2022-12-24T09:22:14;30.30;;;16.13;;
40755;SDS011;26461;45.630;9.418;2022-12-24T09:25:24;26.77;;;18.45;;
40755;SDS011;26461;45.630;9.418;2022-12-24T09:28:34;24.83;;;18.27;;
40755;SDS011;26461;45.630;9.418;2022-12-24T09:31:44;30.15;;;18.80;;
40755;SDS011;26461;45.630;9.418;2022-12-24T09:34:54;30.15;;;20.33;;
40755;SDS011;26461;45.630;9.418;2022-12-24T09:38:04;32.45;;;20.23;;
40755;SDS011;26461;45.630;9.418;2022-12-24T09:45:06;40.85;;;20.60;;
40755;SDS011;26461;45.630;9.418;2022-12-24T09:48:26;43.97;;;26.42;;
40755;SDS011;26461;45.630;9.418;2022-12-24T09:51:39;49.50;;;25.75;;
40755;SDS011;26461;45.630;9.418;2022-12-24T09:54:57;43.10;;;24.08;;
40755;SDS011;26461;45.630;9.418;2022-12-24T09:58:33;34.65;;;23.38;;
40755;SDS011;26461;45.630;9.418;2022-12-24T10:01:49;49.08;;;28.35;;
40755;SDS011;26461;45.630;9.418;2022-12-24T10:05:00;57.17;;;27.10;;
40755;SDS011;26461;45.630;9.418;2022-12-24T10:08:17;41.03;;;28.70;;
40755;SDS011;26461;45.630;9.418;2022-12-24T10:19:01;64.88;;;31.67;;
40755;SDS011;26461;45.630;9.418;2022-12-24T10:25:45;50.58;;;30.92;;
40755;SDS011;26461;45.630;9.418;2022-12-24T10:29:16;36.63;;;31.33;;
40755;SDS011;26461;45.630;9.418;2022-12-24T10:32:30;35.88;;;23.77;;
40755;SDS011;26461;45.630;9.418;2022-12-24T10:35:42;50.65;;;30.05;;
40755;SDS011;26461;45.630;9.418;2022-12-24T10:38:57;47.25;;;30.92;;
40755;SDS011;26461;45.630;9.418;2022-12-24T10:42:07;47.05;;;26.45;;
40755;SDS011;26461;45.630;9.418;2022-12-24T10:45:22;49.05;;;29.52;;
40755;SDS011;26461;45.630;9.418;2022-12-24T10:48:36;34.63;;;26.95;;
40755;SDS011;26461;45.630;9.418;2022-12-24T10:58:19;45.05;;;28.73;;
40755;SDS011;26461;45.630;9.418;2022-12-24T11:01:45;35.15;;;27.00;;
40755;SDS011;26461;45.630;9.418;2022-12-24T11:04:56;33.88;;;24.50;;
40755;SDS011;26461;45.630;9.418;2022-12-24T11:11:21;44.65;;;27.45;;
40755;SDS011;26461;45.630;9.418;2022-12-24T11:14:32;45.42;;;22.70;;
40755;SDS011;26461;45.630;9.418;2022-12-24T11:17:52;57.83;;;31.02;;
40755;SDS011;26461;45.630;9.418;2022-12-24T11:21:17;56.28;;;34.45;;
40755;SDS011;26461;45.630;9.418;2022-12-24T11:24:36;64.97;;;36.90;;
40755;SDS011;26461;45.630;9.418;2022-12-24T11:27:47;62.05;;;33.47;;
40755;SDS011;26461;45.630;9.418;2022-12-24T11:31:02;67.28;;;36.83;;
40755;SDS011;26461;45.630;9.418;2022-12-24T11:34:20;63.28;;;39.53;;
40755;SDS011;26461;45.630;9.418;2022-12-24T11:37:33;52.88;;;38.80;;
40755;SDS011;26461;45.630;9.418;2022-12-24T11:40:44;70.32;;;38.25;;
40755;SDS011;26461;45.630;9.418;2022-12-24T11:44:00;85.90;;;36.13;;
40755;SDS011;26461;45.630;9.418;2022-12-24T11:47:15;60.03;;;35.28;;
40755;SDS011;26461;45.630;9.418;2022-12-24T11:50:26;79.15;;;38.80;;
40755;SDS011;26461;45.630;9.418;2022-12-24T11:53:43;51.80;;;35.80;;
40755;SDS011;26461;45.630;9.418;2022-12-24T11:56:58;67.50;;;38.30;;
40755;SDS011;26461;45.630;9.418;2022-12-24T12:00:10;47.65;;;32.67;;
40755;SDS011;26461;45.630;9.418;2022-12-24T12:03:29;65.35;;;36.15;;
40755;SDS011;26461;45.630;9.418;2022-12-24T12:07:10;65.25;;;35.28;;
40755;SDS011;26461;45.630;9.418;2022-12-24T12:10:26;56.40;;;35.10;;
40755;SDS011;26461;45.630;9.418;2022-12-24T12:13:40;63.55;;;37.97;;
40755;SDS011;26461;45.630;9.418;2022-12-24T12:16:58;87.57;;;48.85;;
40755;SDS011;26461;45.630;9.418;2022-12-24T12:20:21;63.28;;;38.33;;
40755;SDS011;26461;45.630;9.418;2022-12-24T12:23:48;54.42;;;27.80;;
40755;SDS011;26461;45.630;9.418;2022-12-24T12:30:45;58.75;;;40.13;;
40755;SDS011;26461;45.630;9.418;2022-12-24T12:34:11;82.97;;;34.85;;
40755;SDS011;26461;45.630;9.418;2022-12-24T12:37:35;74.35;;;39.85;;
40755;SDS011;26461;45.630;9.418;2022-12-24T12:40:57;53.10;;;39.15;;
40755;SDS011;26461;45.630;9.418;2022-12-24T12:51:26;58.75;;;35.05;;
40755;SDS011;26461;45.630;9.418;2022-12-24T12:55:05;57.03;;;35.35;;
40755;SDS011;26461;45.630;9.418;2022-12-24T12:58:47;51.38;;;35.10;;
40755;SDS011;26461;45.630;9.418;2022-12-24T13:19:43;47.25;;;33.30;;
40755;SDS011;26461;45.630;9.418;2022-12-24T13:23:00;69.18;;;38.45;;
40755;SDS011;26461;45.630;9.418;2022-12-24T13:26:12;59.58;;;36.42;;
40755;SDS011;26461;45.630;9.418;2022-12-24T13:29:38;53.17;;;35.25;;
40755;SDS011;26461;45.630;9.418;2022-12-24T13:33:06;52.35;;;27.77;;
40755;SDS011;26461;45.630;9.418;2022-12-24T13:36:19;45.35;;;29.35;;
40755;SDS011;26461;45.630;9.418;2022-12-24T13:39:59;52.83;;;34.78;;
40755;SDS011;26461;45.630;9.418;2022-12-24T13:43:15;47.83;;;27.80;;
40755;SDS011;26461;45.630;9.418;2022-12-24T13:50:13;53.92;;;35.22;;
40755;SDS011;26461;45.630;9.418;2022-12-24T13:53:32;55.80;;;34.40;;
40755;SDS011;26461;45.630;9.418;2022-12-24T13:56:52;86.20;;;37.38;;
40755;SDS011;26461;45.630;9.418;2022-12-24T14:03:42;53.42;;;29.08;;
40755;SDS011;26461;45.630;9.418;2022-12-24T14:06:53;63.45;;;40.85;;
40755;SDS011;26461;45.630;9.418;2022-12-24T14:10:04;49.10;;;30.02;;
40755;SDS011;26461;45.630;9.418;2022-12-24T14:16:48;46.72;;;30.40;;
40755;SDS011;26461;45.630;9.418;2022-12-24T14:19:59;46.00;;;27.75;;
40755;SDS011;26461;45.630;9.418;2022-12-24T14:23:20;50.17;;;34.42;;
40755;SDS011;26461;45.630;9.418;2022-12-24T14:26:57;50.58;;;33.10;;
40755;SDS011;26461;45.630;9.418;2022-12-24T14:33:32;58.72;;;29.83;;
40755;SDS011;26461;45.630;9.418;2022-12-24T14:36:43;50.40;;;36.85;;
40755;SDS011;26461;45.630;9.418;2022-12-24T14:39:55;43.05;;;34.40;;
40755;SDS011;26461;45.630;9.418;2022-12-24T14:43:10;54.92;;;30.60;;
40755;SDS011;26461;45.630;9.418;2022-12-24T14:46:48;62.05;;;33.83;;
40755;SDS011;26461;45.630;9.418;2022-12-24T14:50:18;61.90;;;34.13;;
40755;SDS011;26461;45.630;9.418;2022-12-24T14:57:24;50.53;;;34.38;;
40755;SDS011;26461;45.630;9.418;2022-12-24T15:00:35;61.85;;;35.72;;
40755;SDS011;26461;45.630;9.418;2022-12-24T15:03:44;41.42;;;32.33;;
40755;SDS011;26461;45.630;9.418;2022-12-24T15:06:55;47.97;;;35.22;;
40755;SDS011;26461;45.630;9.418;2022-12-24T15:10:06;59.97;;;31.70;;
40755;SDS011;26461;45.630;9.418;2022-12-24T15:13:36;50.60;;;36.20;;
40755;SDS011;26461;45.630;9.418;2022-12-24T15:17:00;63.17;;;36.85;;
40755;SDS011;26461;45.630;9.418;2022-12-24T15:20:19;50.60;;;32.03;;
40755;SDS011;26461;45.630;9.418;2022-12-24T15:23:34;57.00;;;34.08;;
40755;SDS011;26461;45.630;9.418;2022-12-24T15:26:45;54.55;;;40.03;;
40755;SDS011;26461;45.630;9.418;2022-12-24T15:29:56;57.38;;;34.90;;
40755;SDS011;26461;45.630;9.418;2022-12-24T15:33:08;69.70;;;33.10;;
40755;SDS011;26461;45.630;9.418;2022-12-24T15:36:28;53.50;;;35.00;;
40755;SDS011;26461;45.630;9.418;2022-12-24T15:39:41;65.28;;;36.15;;
40755;SDS011;26461;45.630;9.418;2022-12-24T15:42:51;46.97;;;32.72;;
40755;SDS011;26461;45.630;9.418;2022-12-24T15:46:02;50.05;;;35.33;;
40755;SDS011;26461;45.630;9.418;2022-12-24T15:49:12;60.63;;;35.88;;
40755;SDS011;26461;45.630;9.418;2022-12-24T15:52:25;42.33;;;32.28;;
40755;SDS011;26461;45.630;9.418;2022-12-24T15:59:33;58.13;;;33.45;;
40755;SDS011;26461;45.630;9.418;2022-12-24T16:02:47;63.38;;;37.60;;
40755;SDS011;26461;45.630;9.418;2022-12-24T16:06:03;56.42;;;34.63;;
40755;SDS011;26461;45.630;9.418;2022-12-24T16:12:49;59.63;;;38.35;;
40755;SDS011;26461;45.630;9.418;2022-12-24T16:19:15;53.53;;;33.50;;
40755;SDS011;26461;45.630;9.418;2022-12-24T16:22:29;57.45;;;34.05;;
40755;SDS011;26461;45.630;9.418;2022-12-24T16:25:39;52.95;;;39.10;;
40755;SDS011;26461;45.630;9.418;2022-12-24T16:28:49;59.70;;;40.85;;
40755;SDS011;26461;45.630;9.418;2022-12-24T16:31:59;68.68;;;42.20;;
40755;SDS011;26461;45.630;9.418;2022-12-24T16:35:43;54.97;;;35.70;;
40755;SDS011;26461;45.630;9.418;2022-12-24T16:38:46;59.40;;;33.97;;
40755;SDS011;26461;45.630;9.418;2022-12-24T16:42:14;66.93;;;36.63;;
40755;SDS011;26461;45.630;9.418;2022-12-24T16:45:43;57.45;;;33.28;;
40755;SDS011;26461;45.630;9.418;2022-12-24T16:48:54;81.28;;;42.58;;
40755;SDS011;26461;45.630;9.418;2022-12-24T16:51:59;65.97;;;44.85;;
40755;SDS011;26461;45.630;9.418;2022-12-24T16:55:11;57.40;;;40.95;;
40755;SDS011;26461;45.630;9.418;2022-12-24T16:58:22;78.93;;;48.13;;
40755;SDS011;26461;45.630;9.418;2022-12-24T17:01:32;83.45;;;47.38;;
40755;SDS011;26461;45.630;9.418;2022-12-24T17:04:42;82.15;;;38.35;;
40755;SDS011;26461;45.630;9.418;2022-12-24T17:07:52;86.65;;;41.63;;
40755;SDS011;26461;45.630;9.418;2022-12-24T17:11:02;69.10;;;39.75;;
40755;SDS011;26461;45.630;9.418;2022-12-24T17:14:12;48.05;;;33.50;;
40755;SDS011;26461;45.630;9.418;2022-12-24T17:17:23;66.45;;;38.95;;
40755;SDS011;26461;45.630;9.418;2022-12-24T17:20:35;51.88;;;36.05;;
40755;SDS011;26461;45.630;9.418;2022-12-24T17:23:40;44.25;;;34.83;;
40755;SDS011;26461;45.630;9.418;2022-12-24T17:26:49;53.30;;;36.63;;
40755;SDS011;26461;45.630;9.418;2022-12-24T17:29:55;73.93;;;41.25;;
40755;SDS011;26461;45.630;9.418;2022-12-24T17:33:04;55.45;;;32.17;;
40755;SDS011;26461;45.630;9.418;2022-12-24T17:36:14;54.83;;;34.65;;
40755;SDS011;26461;45.630;9.418;2022-12-24T17:39:25;54.53;;;34.85;;
40755;SDS011;26461;45.630;9.418;2022-12-24T17:42:34;64.85;;;35.45;;
40755;SDS011;26461;45.630;9.418;2022-12-24T17:45:44;54.00;;;30.08;;
40755;SDS011;26461;45.630;9.418;2022-12-24T17:48:54;56.83;;;31.90;;
40755;SDS011;26461;45.630;9.418;2022-12-24T17:52:06;60.90;;;35.50;;
40755;SDS011;26461;45.630;9.418;2022-12-24T17:55:16;59.63;;;44.15;;
40755;SDS011;26461;45.630;9.418;2022-12-24T17:58:26;56.75;;;36.05;;
40755;SDS011;26461;45.630;9.418;2022-12-24T18:01:37;79.03;;;43.08;;
40755;SDS011;26461;45.630;9.418;2022-12-24T18:04:47;52.45;;;35.67;;
40755;SDS011;26461;45.630;9.418;2022-12-24T18:07:57;56.00;;;35.78;;
40755;SDS011;26461;45.630;9.418;2022-12-24T18:11:17;63.65;;;35.45;;
40755;SDS011;26461;45.630;9.418;2022-12-24T18:14:32;47.70;;;31.58;;
40755;SDS011;26461;45.630;9.418;2022-12-24T18:17:42;47.35;;;31.02;;
40755;SDS011;26461;45.630;9.418;2022-12-24T18:20:52;52.30;;;28.33;;
40755;SDS011;26461;45.630;9.418;2022-12-24T18:24:02;43.33;;;29.17;;
40755;SDS011;26461;45.630;9.418;2022-12-24T18:27:13;63.08;;;35.80;;
40755;SDS011;26461;45.630;9.418;2022-12-24T18:30:24;64.93;;;33.70;;
40755;SDS011;26461;45.630;9.418;2022-12-24T18:33:36;47.95;;;29.90;;
40755;SDS011;26461;45.630;9.418;2022-12-24T18:36:46;69.68;;;34.22;;
40755;SDS011;26461;45.630;9.418;2022-12-24T18:39:56;55.15;;;32.50;;
40755;SDS011;26461;45.630;9.418;2022-12-24T18:43:07;52.15;;;32.58;;
40755;SDS011;26461;45.630;9.418;2022-12-24T18:46:19;65.68;;;36.10;;
40755;SDS011;26461;45.630;9.418;2022-12-24T18:49:30;60.13;;;37.55;;
40755;SDS011;26461;45.630;9.418;2022-12-24T18:52:40;43.92;;;26.92;;
40755;SDS011;26461;45.630;9.418;2022-12-24T18:55:47;62.20;;;32.08;;
40755;SDS011;26461;45.630;9.418;2022-12-24T18:58:56;51.72;;;30.27;;
40755;SDS011;26461;45.630;9.418;2022-12-24T19:02:11;67.30;;;41.17;;
40755;SDS011;26461;45.630;9.418;2022-12-24T19:05:21;50.47;;;36.38;;
40755;SDS011;26461;45.630;9.418;2022-12-24T19:08:26;65.60;;;38.85;;
40755;SDS011;26461;45.630;9.418;2022-12-24T19:11:38;57.80;;;33.70;;
40755;SDS011;26461;45.630;9.418;2022-12-24T19:14:43;44.45;;;34.72;;
40755;SDS011;26461;45.630;9.418;2022-12-24T19:17:52;49.15;;;33.40;;
40755;SDS011;26461;45.630;9.418;2022-12-24T19:21:08;61.10;;;30.65;;
40755;SDS011;26461;45.630;9.418;2022-12-24T19:24:15;41.05;;;28.05;;
40755;SDS011;26461;45.630;9.418;2022-12-24T19:27:20;50.50;;;28.02;;
40755;SDS011;26461;45.630;9.418;2022-12-24T19:30:30;40.60;;;28.00;;
40755;SDS011;26461;45.630;9.418;2022-12-24T19:33:40;52.33;;;29.00;;
40755;SDS011;26461;45.630;9.418;2022-12-24T19:36:46;53.25;;;30.20;;
40755;SDS011;26461;45.630;9.418;2022-12-24T19:39:56;56.70;;;27.85;;
40755;SDS011;26461;45.630;9.418;2022-12-24T19:43:05;56.28;;;30.80;;
40755;SDS011;26461;45.630;9.418;2022-12-24T19:46:17;66.68;;;32.28;;
40755;SDS011;26461;45.630;9.418;2022-12-24T19:49:23;45.92;;;33.03;;
40755;SDS011;26461;45.630;9.418;2022-12-24T19:52:32;51.47;;;29.83;;
40755;SDS011;26461;45.630;9.418;2022-12-24T19:55:46;46.08;;;33.40;;
40755;SDS011;26461;45.630;9.418;2022-12-24T19:58:57;53.85;;;32.65;;
40755;SDS011;26461;45.630;9.418;2022-12-24T20:02:13;39.08;;;30.73;;
40755;SDS011;26461;45.630;9.418;2022-12-24T20:05:24;50.55;;;33.35;;
40755;SDS011;26461;45.630;9.418;2022-12-24T20:15:53;53.03;;;31.35;;
40755;SDS011;26461;45.630;9.418;2022-12-24T20:19:10;37.63;;;28.40;;
40755;SDS011;26461;45.630;9.418;2022-12-24T20:22:26;48.55;;;28.58;;
40755;SDS011;26461;45.630;9.418;2022-12-24T20:25:36;63.65;;;32.60;;
40755;SDS011;26461;45.630;9.418;2022-12-24T20:32:43;65.68;;;35.95;;
40755;SDS011;26461;45.630;9.418;2022-12-24T20:35:53;69.47;;;36.97;;
40755;SDS011;26461;45.630;9.418;2022-12-24T20:38:59;58.88;;;37.30;;
40755;SDS011;26461;45.630;9.418;2022-12-24T20:45:47;58.10;;;33.72;;
40755;SDS011;26461;45.630;9.418;2022-12-24T20:49:00;69.68;;;39.80;;
40755;SDS011;26461;45.630;9.418;2022-12-24T20:52:11;61.65;;;33.30;;
40755;SDS011;26461;45.630;9.418;2022-12-24T20:55:22;63.70;;;41.80;;
40755;SDS011;26461;45.630;9.418;2022-12-24T20:58:37;61.97;;;39.97;;
40755;SDS011;26461;45.630;9.418;2022-12-24T21:01:44;59.90;;;36.00;;
40755;SDS011;26461;45.630;9.418;2022-12-24T21:08:29;47.55;;;34.08;;